createdAt,value
2023-01-10T00:03:41.597Z,92.84
2023-01-10T00:08:49.487Z,92.71
2023-01-10T00:13:56.500Z,92.93
2023-01-10T00:19:02.856Z,92.45
2023-01-10T00:24:20.453Z,92.72
2023-01-10T00:29:31.594Z,92.51
2023-01-10T00:34:38.057Z,92.60
2023-01-10T00:39:46.032Z,92.87
2023-01-10T00:44:52.910Z,93.08
2023-01-10T00:49:59.404Z,92.96
2023-01-10T00:55:09.008Z,93.11
2023-01-10T01:00:16.698Z,92.83
2023-01-10T01:05:23.547Z,92.80
2023-01-10T01:10:31.445Z,92.95
2023-01-10T01:15:38.556Z,92.90
2023-01-10T01:20:46.936Z,93.36
2023-01-10T01:25:56.237Z,93.55
2023-01-10T01:31:08.288Z,93.53
2023-01-10T01:36:16.382Z,93.16
2023-01-10T01:41:42.031Z,92.99
2023-01-10T01:46:56.944Z,93.11
2023-01-10T01:52:08.620Z,92.96
2023-01-10T01:57:21.921Z,92.91
2023-01-10T02:02:33.372Z,92.97
2023-01-10T02:07:44.526Z,93.06
2023-01-10T02:12:55.293Z,92.99
2023-01-10T02:18:03.785Z,93.13
2023-01-10T02:23:55.098Z,92.74
2023-01-10T02:29:41.971Z,93.25
2023-01-10T02:35:05.641Z,93.10
2023-01-10T02:40:24.603Z,92.82
2023-01-10T02:45:33.403Z,92.99
2023-01-10T02:51:00.530Z,93.02
2023-01-10T02:57:21.895Z,92.77
2023-01-10T03:02:45.885Z,92.88
2023-01-10T03:08:03.439Z,92.91
2023-01-10T03:13:16.542Z,93.05
2023-01-10T03:18:28.834Z,93.13
2023-01-10T03:23:37.746Z,92.96
2023-01-10T03:28:51.399Z,92.86
2023-01-10T03:33:58.057Z,92.57
2023-01-10T03:39:18.400Z,92.46
2023-01-10T03:44:46.246Z,92.38
2023-01-10T03:49:58.585Z,92.16
2023-01-10T03:55:08.873Z,92.12
2023-01-10T04:00:17.906Z,92.13
2023-01-10T04:05:24.063Z,92.18
2023-01-10T04:10:31.894Z,92.29
2023-01-10T04:15:38.491Z,92.42
2023-01-10T04:20:45.238Z,92.37
2023-01-10T04:25:53.070Z,91.96
2023-01-10T04:30:59.499Z,92.54
2023-01-10T04:36:06.649Z,91.93
2023-01-10T04:41:15.631Z,91.99
2023-01-10T04:46:21.949Z,91.65
2023-01-10T04:51:30.317Z,91.71
2023-01-10T04:56:38.431Z,91.36
2023-01-10T05:01:45.045Z,91.45
2023-01-10T05:06:51.649Z,91.35
2023-01-10T05:11:59.572Z,91.10
2023-01-10T05:17:06.582Z,91.18
2023-01-10T05:22:14.332Z,91.02
2023-01-10T05:27:22.439Z,91.43
2023-01-10T05:32:31.204Z,91.10
2023-01-10T05:37:38.279Z,90.92
2023-01-10T05:42:46.454Z,90.71
2023-01-10T05:47:53.294Z,90.87
2023-01-10T05:53:04.308Z,91.08
2023-01-10T05:58:13.324Z,91.12
2023-01-10T06:03:22.134Z,91.11
2023-01-10T06:08:28.665Z,91.07
2023-01-10T06:13:36.521Z,91.15
2023-01-10T06:18:43.314Z,91.15
2023-01-10T06:23:50.610Z,91.29
2023-01-10T06:28:59.999Z,91.16
2023-01-10T06:34:06.920Z,90.77
2023-01-10T06:39:14.248Z,90.93
2023-01-10T06:44:24.980Z,91.00
2023-01-10T06:49:31.577Z,90.67
2023-01-10T06:54:38.010Z,90.84
2023-01-10T06:59:45.839Z,90.69
2023-01-10T07:04:52.377Z,90.58
2023-01-10T07:10:00.186Z,90.58
2023-01-10T07:15:09.700Z,90.29
2023-01-10T07:20:16.447Z,90.33
2023-01-10T07:25:22.794Z,89.95
2023-01-10T07:30:30.739Z,90.14
2023-01-10T07:35:37.367Z,90.04
2023-01-10T07:40:45.884Z,90.20
2023-01-10T07:45:53.860Z,90.02
2023-01-10T07:51:02.113Z,90.06
2023-01-10T07:56:09.448Z,90.04
2023-01-10T08:01:17.450Z,89.89
2023-01-10T08:06:23.895Z,89.88
2023-01-10T08:11:30.395Z,89.85
2023-01-10T08:16:39.674Z,89.74
2023-01-10T08:21:45.926Z,89.69
2023-01-10T08:26:52.801Z,89.66
2023-01-10T08:32:01.593Z,89.67
2023-01-10T08:37:08.225Z,89.62
2023-01-10T08:42:16.586Z,89.61
2023-01-10T08:47:24.569Z,89.18
2023-01-10T08:52:30.998Z,89.52
2023-01-10T08:57:37.248Z,89.31
2023-01-10T09:02:45.415Z,89.42
2023-01-10T09:07:51.838Z,89.57
2023-01-10T09:13:01.961Z,89.76
2023-01-10T09:18:12.633Z,89.43
2023-01-10T09:23:21.613Z,89.36
2023-01-10T09:28:28.494Z,89.55
2023-01-10T09:33:46.283Z,89.43
2023-01-10T09:38:54.037Z,89.63
2023-01-10T09:44:06.496Z,89.84
2023-01-10T09:49:28.362Z,89.60
2023-01-10T09:54:40.187Z,89.95
2023-01-10T09:59:49.279Z,89.45
2023-01-10T10:05:05.978Z,89.40
2023-01-10T10:10:19.775Z,89.17
2023-01-10T10:15:37.691Z,89.00
2023-01-10T10:20:59.427Z,89.00
2023-01-10T10:26:15.151Z,88.92
2023-01-10T10:31:35.462Z,88.88
2023-01-10T10:36:49.698Z,88.93
2023-01-10T10:41:57.886Z,88.99
2023-01-10T10:47:04.509Z,89.06
2023-01-10T10:52:24.265Z,88.85
2023-01-10T10:57:32.858Z,88.53
2023-01-10T11:02:45.255Z,88.54
2023-01-10T11:07:56.920Z,88.72
2023-01-10T11:13:05.467Z,88.34
2023-01-10T11:18:16.893Z,88.20
2023-01-10T11:23:39.508Z,88.44
2023-01-10T11:28:46.325Z,88.08
2023-01-10T11:33:52.942Z,88.23
2023-01-10T11:39:06.439Z,88.00
2023-01-10T11:44:24.059Z,87.99
2023-01-10T11:49:44.535Z,87.98
2023-01-10T11:54:55.392Z,87.78
2023-01-10T12:00:07.937Z,87.70
2023-01-10T12:05:23.921Z,87.57
2023-01-10T12:10:31.837Z,87.36
2023-01-10T12:15:38.913Z,87.25
2023-01-10T12:20:50.676Z,87.53
2023-01-10T12:26:11.417Z,87.16
2023-01-10T12:31:19.605Z,86.76
2023-01-10T12:36:46.391Z,87.30
2023-01-10T12:42:33.339Z,86.89
2023-01-10T12:47:58.539Z,87.01
2023-01-10T12:53:14.961Z,86.77
2023-01-10T12:58:25.868Z,87.12
2023-01-10T13:03:35.511Z,87.22
2023-01-10T13:08:44.010Z,87.16
2023-01-10T13:13:58.932Z,87.05
2023-01-10T13:19:24.327Z,87.02
2023-01-10T13:24:31.307Z,87.34
2023-01-10T13:29:45.086Z,87.25
2023-01-10T13:34:52.532Z,87.18
2023-01-10T13:40:02.445Z,87.50
2023-01-10T13:45:22.698Z,87.54
2023-01-10T13:51:09.439Z,87.48
2023-01-10T13:56:36.040Z,87.31
2023-01-10T14:02:03.208Z,87.48
2023-01-10T14:07:23.347Z,87.59
2023-01-10T14:12:40.212Z,87.57
2023-01-10T14:18:02.714Z,87.60
2023-01-10T14:23:20.825Z,87.82
2023-01-10T14:28:31.388Z,87.28
2023-01-10T14:33:43.753Z,87.02
2023-01-10T14:38:57.007Z,87.09
2023-01-10T14:44:12.707Z,87.34
2023-01-10T14:49:27.971Z,87.52
2023-01-10T14:54:36.283Z,87.56
2023-01-10T14:59:42.894Z,87.58
2023-01-10T15:04:56.365Z,87.64
2023-01-10T15:10:06.485Z,87.17
2023-01-10T15:15:19.346Z,87.22
2023-01-10T15:20:28.511Z,87.26
2023-01-10T15:25:38.355Z,86.62
2023-01-10T15:30:45.938Z,86.71
2023-01-10T15:35:54.366Z,87.05
2023-01-10T15:41:03.858Z,87.12
2023-01-10T15:46:21.689Z,87.45
2023-01-10T15:51:36.867Z,87.72
2023-01-10T15:56:49.928Z,87.77
2023-01-10T16:01:58.264Z,88.35
2023-01-10T16:07:16.999Z,88.44
2023-01-10T16:12:46.830Z,88.52
2023-01-10T16:17:55.162Z,88.34
2023-01-10T16:23:05.422Z,88.59
2023-01-10T16:28:15.633Z,88.48
2023-01-10T16:33:24.998Z,88.67
2023-01-10T16:38:33.503Z,87.92
2023-01-10T16:43:40.114Z,87.81
2023-01-10T16:48:48.019Z,87.86
2023-01-10T16:53:56.492Z,87.65
2023-01-10T16:59:04.738Z,87.39
2023-01-10T17:04:19.840Z,86.91
2023-01-10T17:09:30.797Z,86.90
2023-01-10T17:14:39.076Z,86.88
2023-01-10T17:19:47.564Z,86.73
2023-01-10T17:24:55.915Z,87.28
2023-01-10T17:30:02.645Z,87.08
2023-01-10T17:35:11.755Z,87.25
2023-01-10T17:40:23.345Z,87.28
2023-01-10T17:45:55.068Z,87.15
2023-01-10T17:51:03.781Z,86.19
2023-01-10T17:56:12.440Z,86.92
2023-01-10T18:01:24.823Z,86.64
2023-01-10T18:06:31.943Z,86.08
2023-01-10T18:11:40.562Z,85.55
2023-01-10T18:16:47.899Z,85.43
2023-01-10T18:21:55.239Z,85.63
2023-01-10T18:27:04.295Z,86.11
2023-01-10T18:32:11.955Z,85.71
2023-01-10T18:37:19.679Z,84.96
2023-01-10T18:42:28.538Z,85.17
2023-01-10T18:47:39.855Z,85.69
2023-01-10T18:52:47.837Z,86.00
2023-01-10T18:57:56.561Z,86.30
2023-01-10T19:03:04.294Z,85.63
2023-01-10T19:08:15.141Z,86.61
2023-01-10T19:13:24.677Z,87.49
2023-01-10T19:18:32.904Z,88.16
2023-01-10T19:23:42.271Z,88.76
2023-01-10T19:28:51.150Z,88.90
2023-01-10T19:34:02.158Z,89.02
2023-01-10T19:39:10.724Z,89.25
2023-01-10T19:44:20.735Z,89.30
2023-01-10T19:49:32.379Z,89.53
2023-01-10T19:54:42.154Z,89.94
2023-01-10T19:59:56.678Z,90.32
2023-01-10T20:05:04.459Z,90.06
2023-01-10T20:10:12.987Z,89.68
2023-01-10T20:15:22.890Z,89.81
2023-01-10T20:20:31.725Z,90.00
2023-01-10T20:25:39.265Z,90.34
2023-01-10T20:30:49.925Z,90.78
2023-01-10T20:35:59.963Z,90.38
2023-01-10T20:41:11.481Z,90.76
2023-01-10T20:46:22.108Z,91.09
2023-01-10T20:51:33.430Z,91.34
2023-01-10T20:56:40.924Z,91.42
2023-01-10T21:01:49.318Z,91.20
2023-01-10T21:06:55.976Z,91.14
2023-01-10T21:12:17.670Z,91.04
2023-01-10T21:17:31.104Z,91.12
2023-01-10T21:22:38.011Z,91.11
2023-01-10T21:27:44.328Z,90.95
2023-01-10T21:32:52.447Z,90.97
2023-01-10T21:37:59.407Z,91.39
2023-01-10T21:43:06.319Z,91.10
2023-01-10T21:48:14.632Z,91.02
2023-01-10T21:53:21.293Z,91.29
2023-01-10T21:58:27.694Z,91.37
2023-01-10T22:03:36.262Z,91.47
2023-01-10T22:08:43.977Z,91.29
2023-01-10T22:13:52.255Z,91.45
2023-01-10T22:19:00.674Z,92.16
2023-01-10T22:24:09.380Z,92.64
2023-01-10T22:29:16.651Z,93.11
2023-01-10T22:34:24.864Z,93.41
2023-01-10T22:39:31.505Z,93.47
2023-01-10T22:44:38.158Z,93.82
2023-01-10T22:49:46.476Z,93.78
2023-01-10T22:54:53.024Z,93.57
2023-01-10T23:05:24.925Z,93.11
2023-01-10T23:10:34.131Z,92.80
2023-01-10T23:15:40.148Z,92.87
2023-01-10T23:20:50.402Z,93.21
2023-01-10T23:26:04.607Z,93.51
2023-01-10T23:31:11.769Z,94.06
2023-01-10T23:36:20.441Z,93.91
2023-01-10T23:41:26.946Z,93.91
2023-01-10T23:46:33.123Z,94.15
2023-01-10T23:51:41.322Z,94.23
2023-01-10T23:56:47.764Z,94.40
